Time;durP1;ratioP1;P1;durP2;ratioP2;P2;SDS_P1;SDS_P2;PMS_P1;PMS_P2;Temp;Humidity;BMP_temperature;BMP_pressure;BME280_temperature;BME280_humidity;BME280_pressure;Samples;Min_cycle;Max_cycle;Signal;HPM_P1;HPM_P2
2023/07/29 00:02:08;;;;;;;1.57;1.47;;;23.20;47.50;;;;;;5036194;28;20538;-62
2023/07/29 00:04:34;;;;;;;1.40;1.30;;;23.20;47.50;;;;;;5032483;28;20265;-62
2023/07/29 00:06:59;;;;;;;1.40;1.30;;;23.20;47.50;;;;;;5028607;28;20317;-62
2023/07/29 00:09:25;;;;;;;1.23;1.13;;;23.20;47.50;;;;;;5033218;28;20305;-61
2023/07/29 00:11:50;;;;;;;1.33;1.23;;;23.20;47.50;;;;;;5034945;28;20245;-62
2023/07/29 00:14:16;;;;;;;1.33;1.23;;;23.20;47.50;;;;;;5038083;28;20226;-63
2023/07/29 00:16:42;;;;;;;1.63;1.53;;;23.20;47.50;;;;;;5035836;28;20241;-62
2023/07/29 00:19:08;;;;;;;1.30;1.20;;;23.20;47.50;;;;;;5034803;28;20314;-63
2023/07/29 00:21:34;;;;;;;1.33;1.23;;;23.20;48.20;;;;;;5019757;28;20546;-61
2023/07/29 00:24:01;;;;;;;1.40;1.30;;;23.20;47.50;;;;;;5030096;28;20234;-65
2023/07/29 00:26:28;;;;;;;1.30;1.20;;;23.20;47.50;;;;;;5028108;28;20628;-62
2023/07/29 00:28:54;;;;;;;1.37;1.27;;;23.20;47.50;;;;;;5032075;28;20446;-62
2023/07/29 00:31:20;;;;;;;1.23;1.13;;;23.20;47.50;;;;;;5036408;28;20574;-63
2023/07/29 00:33:45;;;;;;;1.30;1.20;;;23.20;47.50;;;;;;5033331;28;20555;-62
2023/07/29 00:36:11;;;;;;;1.20;1.10;;;23.20;47.50;;;;;;5033955;28;20226;-62
2023/07/29 00:38:37;;;;;;;1.40;1.30;;;23.20;47.50;;;;;;5036599;28;20598;-62
2023/07/29 00:41:03;;;;;;;1.20;1.10;;;23.20;47.50;;;;;;5035161;28;20247;-62
2023/07/29 00:43:29;;;;;;;1.30;1.20;;;23.20;47.50;;;;;;5037048;28;21018;-62
2023/07/29 00:45:54;;;;;;;1.20;1.10;;;23.20;47.50;;;;;;5032480;28;20226;-62
2023/07/29 00:48:20;;;;;;;1.30;1.20;;;23.20;47.50;;;;;;5023881;28;20224;-63
2023/07/29 00:50:46;;;;;;;1.40;1.30;;;23.20;47.50;;;;;;5028861;28;20230;-62
2023/07/29 00:53:11;;;;;;;1.20;1.07;;;23.20;47.50;;;;;;5036755;28;20242;-62
2023/07/29 00:55:37;;;;;;;1.30;1.10;;;23.20;47.50;;;;;;5034492;28;20729;-62
2023/07/29 00:58:04;;;;;;;1.20;1.10;;;23.20;47.50;;;;;;5032421;28;20318;-62
2023/07/29 01:00:30;;;;;;;1.40;1.30;;;23.20;47.50;;;;;;5034740;28;20214;-61
2023/07/29 01:02:55;;;;;;;1.27;1.13;;;23.20;48.20;;;;;;5034943;28;20464;-62
2023/07/29 01:05:21;;;;;;;1.10;1.00;;;23.20;47.50;;;;;;5037071;28;20465;-64
2023/07/29 01:08:05;;;;;;;1.20;1.10;;;23.20;47.50;;;;;;5033898;28;20217;-62
2023/07/29 01:10:43;;;;;;;1.10;1.00;;;23.20;47.60;;;;;;5025545;28;20214;-64
2023/07/29 01:13:09;;;;;;;1.23;1.13;;;23.20;47.50;;;;;;5033162;28;20450;-61
2023/07/29 01:15:53;;;;;;;1.20;1.10;;;23.20;47.50;;;;;;5038518;28;20542;-62
2023/07/29 01:18:27;;;;;;;1.27;1.17;;;23.20;47.50;;;;;;5035614;28;20217;-62
2023/07/29 01:20:58;;;;;;;1.20;1.10;;;23.20;47.50;;;;;;5031417;28;20457;-62
2023/07/29 01:23:33;;;;;;;1.00;0.90;;;23.20;47.50;;;;;;5025223;28;20492;-62
2023/07/29 01:25:59;;;;;;;1.00;1.00;;;23.20;47.50;;;;;;5032012;28;20465;-62
2023/07/29 01:28:26;;;;;;;1.00;0.93;;;23.20;47.50;;;;;;5037275;28;20452;-61
2023/07/29 01:31:09;;;;;;;1.13;1.03;;;23.20;47.50;;;;;;5038290;28;20564;-62
2023/07/29 01:33:42;;;;;;;0.97;0.90;;;23.20;47.50;;;;;;5035357;28;20466;-62
2023/07/29 01:36:18;;;;;;;1.27;1.17;;;23.20;47.50;;;;;;5040071;28;20447;-62
2023/07/29 01:38:45;;;;;;;1.00;0.90;;;23.20;47.50;;;;;;5037853;28;20460;-63
2023/07/29 01:41:11;;;;;;;0.83;0.83;;;23.20;47.50;;;;;;5022365;28;20518;-62
2023/07/29 01:43:42;;;;;;;1.20;1.10;;;23.20;47.50;;;;;;5038863;28;20906;-62
2023/07/29 01:46:10;;;;;;;0.90;0.90;;;23.20;47.50;;;;;;5038475;28;20698;-61
2023/07/29 01:48:35;;;;;;;1.20;1.10;;;23.20;47.50;;;;;;5039307;28;20462;-62
2023/07/29 01:51:01;;;;;;;1.00;0.90;;;23.20;47.50;;;;;;5036390;28;20468;-62
2023/07/29 01:53:27;;;;;;;1.13;1.03;;;23.20;47.50;;;;;;5024294;28;20227;-62
2023/07/29 01:55:52;;;;;;;1.10;1.00;;;23.20;47.50;;;;;;5032965;28;20416;-62
2023/07/29 01:58:18;;;;;;;2.40;1.20;;;23.20;47.50;;;;;;5025032;28;20227;-62
2023/07/29 02:00:43;;;;;;;1.10;1.00;;;23.20;48.20;;;;;;5032783;28;20226;-62
2023/07/29 02:03:09;;;;;;;1.00;0.90;;;23.20;47.50;;;;;;5037607;28;20225;-61
2023/07/29 02:05:34;;;;;;;1.23;1.13;;;23.20;47.50;;;;;;5039006;28;20226;-63
2023/07/29 02:08:00;;;;;;;1.00;1.00;;;23.20;47.50;;;;;;5035632;28;20233;-61
2023/07/29 02:10:25;;;;;;;1.10;1.00;;;23.20;47.50;;;;;;5036227;28;20700;-61
2023/07/29 02:12:51;;;;;;;0.97;0.90;;;23.20;47.50;;;;;;5033455;28;20627;-61
2023/07/29 02:15:16;;;;;;;1.10;1.00;;;23.20;47.50;;;;;;5036031;28;20229;-62
2023/07/29 02:17:42;;;;;;;0.80;0.80;;;23.20;47.50;;;;;;5036285;28;20267;-62
2023/07/29 02:20:08;;;;;;;0.97;0.87;;;23.20;47.50;;;;;;5037482;28;20807;-62
2023/07/29 02:22:34;;;;;;;1.00;0.90;;;23.20;47.50;;;;;;5038149;28;20575;-61
2023/07/29 02:24:59;;;;;;;1.00;0.90;;;23.20;47.60;;;;;;5034167;28;20463;-63
2023/07/29 02:27:27;;;;;;;1.10;1.00;;;23.20;47.50;;;;;;5034869;28;20222;-62
2023/07/29 02:29:52;;;;;;;1.07;0.97;;;23.20;47.50;;;;;;5039297;28;20315;-62
2023/07/29 02:32:18;;;;;;;0.90;0.90;;;23.20;47.50;;;;;;5034430;28;21044;-62
2023/07/29 02:34:44;;;;;;;1.07;0.90;;;23.20;47.50;;;;;;5037667;28;20230;-63
2023/07/29 02:37:09;;;;;;;1.03;1.00;;;23.20;47.50;;;;;;5036997;28;20566;-63
2023/07/29 02:39:36;;;;;;;0.70;0.70;;;23.20;47.50;;;;;;5036382;28;20226;-62
2023/07/29 02:42:01;;;;;;;1.10;1.00;;;23.20;47.60;;;;;;5038189;28;20309;-61
2023/07/29 02:44:27;;;;;;;0.80;0.80;;;23.20;48.30;;;;;;5030524;28;20568;-62
2023/07/29 02:46:54;;;;;;;0.70;0.70;;;23.20;47.50;;;;;;5030628;28;20257;-62
2023/07/29 02:49:19;;;;;;;1.13;1.03;;;23.20;47.50;;;;;;5035582;28;20400;-62
2023/07/29 02:51:45;;;;;;;0.80;0.80;;;23.20;47.60;;;;;;5039424;28;20955;-61
2023/07/29 02:54:10;;;;;;;0.80;0.80;;;23.20;47.60;;;;;;5035625;28;20622;-62
2023/07/29 02:56:36;;;;;;;0.87;0.87;;;23.20;47.50;;;;;;5039423;28;20317;-62
2023/07/29 02:59:02;;;;;;;0.97;0.90;;;23.20;47.50;;;;;;5036661;28;20288;-63
2023/07/29 03:01:27;;;;;;;0.90;0.90;;;23.20;47.50;;;;;;5036998;28;20214;-62
2023/07/29 03:03:53;;;;;;;0.80;0.80;;;23.10;47.40;;;;;;5034030;28;20238;-62
2023/07/29 03:06:18;;;;;;;1.10;1.00;;;23.20;47.60;;;;;;5038852;28;20228;-62
2023/07/29 03:08:44;;;;;;;1.00;0.90;;;23.20;47.50;;;;;;5035888;28;20857;-62
2023/07/29 03:11:12;;;;;;;0.90;0.80;;;23.20;47.50;;;;;;5039076;28;20241;-62
2023/07/29 03:13:37;;;;;;;1.00;0.90;;;23.20;48.20;;;;;;5031706;28;20656;-62
2023/07/29 03:16:08;;;;;;;1.00;0.90;;;23.20;47.50;;;;;;5037130;28;20439;-62
2023/07/29 03:18:33;;;;;;;0.80;0.80;;;23.20;47.60;;;;;;5027608;28;20628;-62
2023/07/29 03:20:59;;;;;;;1.07;0.97;;;23.20;47.60;;;;;;5038012;28;20467;-62
2023/07/29 03:23:24;;;;;;;0.80;0.70;;;23.20;47.60;;;;;;5032962;28;20222;-62
2023/07/29 03:25:56;;;;;;;0.97;0.90;;;23.20;47.50;;;;;;5034949;28;20214;-62
2023/07/29 03:28:32;;;;;;;0.73;0.73;;;23.20;47.60;;;;;;5036235;28;20264;-62
2023/07/29 03:30:58;;;;;;;0.83;0.83;;;23.10;47.50;;;;;;5038064;28;20459;-62
2023/07/29 03:33:25;;;;;;;0.90;0.80;;;23.20;47.70;;;;;;5039361;28;20463;-61
2023/07/29 03:35:51;;;;;;;0.90;0.90;;;23.20;47.50;;;;;;5037836;28;20459;-61
2023/07/29 03:38:16;;;;;;;0.90;0.90;;;23.20;47.70;;;;;;5036776;28;20550;-61
2023/07/29 03:40:42;;;;;;;0.80;0.80;;;23.20;47.60;;;;;;5037482;28;20229;-61
2023/07/29 03:43:08;;;;;;;0.80;0.80;;;23.20;47.70;;;;;;5036722;28;20227;-65
2023/07/29 03:45:35;;;;;;;0.90;0.90;;;23.20;47.60;;;;;;5037476;28;20229;-61
2023/07/29 03:48:01;;;;;;;1.00;0.90;;;23.20;47.70;;;;;;5039497;28;20459;-61
2023/07/29 03:50:29;;;;;;;0.80;0.80;;;23.20;47.70;;;;;;5037886;28;20517;-62
2023/07/29 03:52:55;;;;;;;0.80;0.80;;;23.20;47.70;;;;;;5036161;28;20467;-62
2023/07/29 03:55:20;;;;;;;0.93;0.90;;;23.20;47.60;;;;;;5038947;28;21004;-63
2023/07/29 03:57:46;;;;;;;1.00;0.90;;;23.10;47.50;;;;;;5038078;28;20223;-63
2023/07/29 04:00:11;;;;;;;0.80;0.80;;;23.20;47.70;;;;;;5037039;28;20221;-62
2023/07/29 04:02:37;;;;;;;1.00;0.90;;;23.20;47.70;;;;;;5035605;28;20557;-61
2023/07/29 04:05:04;;;;;;;0.80;0.80;;;23.20;47.70;;;;;;5032739;28;20750;-61
2023/07/29 04:07:30;;;;;;;1.00;0.97;;;23.10;47.60;;;;;;5036054;28;20218;-61
2023/07/29 04:09:56;;;;;;;0.80;0.80;;;23.20;47.70;;;;;;5035222;28;20539;-62
2023/07/29 04:12:22;;;;;;;0.80;0.80;;;23.20;47.70;;;;;;5024398;28;20577;-62
2023/07/29 04:14:48;;;;;;;0.97;0.90;;;23.20;47.80;;;;;;5024367;28;21026;-62
2023/07/29 04:17:13;;;;;;;1.00;0.80;;;23.20;47.80;;;;;;5036347;28;20229;-61
2023/07/29 04:19:39;;;;;;;0.80;0.80;;;23.20;47.80;;;;;;5031090;28;20222;-62
2023/07/29 04:22:04;;;;;;;0.80;0.80;;;23.10;47.70;;;;;;5023631;28;20230;-61
2023/07/29 04:24:30;;;;;;;0.90;0.90;;;23.20;47.80;;;;;;5035257;28;20210;-61
2023/07/29 04:26:55;;;;;;;0.77;0.77;;;23.20;47.80;;;;;;5035345;28;20225;-62
2023/07/29 04:29:22;;;;;;;0.73;0.73;;;23.20;47.80;;;;;;5033433;28;20218;-62
2023/07/29 04:31:48;;;;;;;0.70;0.70;;;23.20;47.80;;;;;;5034429;28;20234;-62
2023/07/29 04:34:14;;;;;;;0.80;0.80;;;23.20;47.80;;;;;;5036252;28;20774;-63
2023/07/29 04:36:39;;;;;;;0.90;0.80;;;23.20;47.80;;;;;;5042969;28;21005;-61
2023/07/29 04:39:05;;;;;;;0.87;0.87;;;23.20;47.80;;;;;;5036900;28;20619;-61
2023/07/29 04:41:31;;;;;;;0.80;0.80;;;23.20;47.80;;;;;;5041133;28;20728;-62
2023/07/29 04:43:56;;;;;;;0.80;0.80;;;23.20;47.80;;;;;;5021453;28;20227;-61
2023/07/29 04:46:22;;;;;;;0.93;0.90;;;23.20;47.70;;;;;;5033348;28;20236;-61
2023/07/29 04:48:47;;;;;;;0.77;0.77;;;23.20;47.70;;;;;;5039198;28;20223;-62
2023/07/29 04:51:13;;;;;;;0.70;0.70;;;23.20;47.70;;;;;;5041243;28;20328;-63
2023/07/29 04:53:38;;;;;;;0.80;0.80;;;23.20;47.60;;;;;;5032562;28;20325;-62
2023/07/29 04:56:04;;;;;;;1.10;1.00;;;23.20;47.60;;;;;;5020264;28;20261;-61
2023/07/29 04:58:30;;;;;;;0.90;0.80;;;23.20;47.50;;;;;;5019048;28;20222;-62
2023/07/29 05:00:58;;;;;;;0.77;0.70;;;23.20;47.60;;;;;;5038037;28;20249;-62
2023/07/29 05:03:24;;;;;;;0.73;0.73;;;23.20;47.60;;;;;;5029887;28;20223;-61
2023/07/29 05:05:51;;;;;;;0.70;0.70;;;23.20;47.50;;;;;;5028558;28;20460;-62
2023/07/29 05:08:16;;;;;;;0.90;0.80;;;23.20;47.50;;;;;;5037875;28;20643;-62
2023/07/29 05:10:42;;;;;;;0.80;0.80;;;23.20;47.60;;;;;;5039632;28;20438;-62
2023/07/29 05:13:07;;;;;;;0.80;0.80;;;23.20;47.50;;;;;;5037138;28;20271;-62
2023/07/29 05:15:33;;;;;;;0.87;0.80;;;23.20;47.50;;;;;;5037991;28;20280;-62
2023/07/29 05:17:58;;;;;;;0.87;0.87;;;23.20;47.50;;;;;;5026179;28;20341;-61
2023/07/29 05:20:24;;;;;;;0.80;0.80;;;23.20;47.50;;;;;;5038977;28;20223;-61
2023/07/29 05:22:49;;;;;;;0.70;0.70;;;23.20;47.50;;;;;;5025822;28;20252;-62
2023/07/29 05:25:15;;;;;;;0.73;0.70;;;23.20;47.50;;;;;;5023760;28;20241;-62
2023/07/29 05:27:41;;;;;;;0.80;0.80;;;23.20;47.50;;;;;;5032935;28;20225;-63
2023/07/29 05:30:07;;;;;;;0.70;0.70;;;23.20;47.50;;;;;;5037689;28;20225;-62
2023/07/29 05:32:33;;;;;;;0.60;0.60;;;23.20;47.50;;;;;;5040284;28;20262;-62
2023/07/29 05:34:58;;;;;;;0.87;0.83;;;23.20;47.50;;;;;;5040419;28;20507;-63
2023/07/29 05:37:24;;;;;;;0.70;0.70;;;23.20;47.50;;;;;;5040064;28;20222;-62
2023/07/29 05:39:49;;;;;;;0.60;0.60;;;23.20;47.50;;;;;;5034484;28;20225;-62
2023/07/29 05:42:15;;;;;;;0.70;0.70;;;23.20;47.50;;;;;;5037271;28;20253;-62
2023/07/29 05:44:40;;;;;;;1.00;0.80;;;23.20;47.50;;;;;;5038615;28;20215;-62
2023/07/29 05:47:06;;;;;;;0.77;0.77;;;23.20;47.50;;;;;;5037613;28;20238;-62
2023/07/29 05:49:32;;;;;;;0.70;0.70;;;23.20;47.50;;;;;;5036493;28;20214;-61
2023/07/29 05:51:57;;;;;;;0.90;0.90;;;23.20;47.50;;;;;;5028132;28;20245;-62
2023/07/29 05:54:23;;;;;;;1.07;1.00;;;23.20;47.50;;;;;;5036721;28;20218;-61
2023/07/29 05:56:48;;;;;;;0.60;0.60;;;23.20;47.60;;;;;;5038292;28;20254;-62
2023/07/29 05:59:14;;;;;;;0.70;0.70;;;23.20;47.50;;;;;;5032697;28;20232;-62
2023/07/29 06:01:39;;;;;;;0.90;0.80;;;23.30;47.60;;;;;;5037709;28;20677;-62
2023/07/29 06:04:05;;;;;;;0.77;0.70;;;23.30;47.60;;;;;;5036808;28;20234;-62
2023/07/29 06:06:30;;;;;;;0.70;0.70;;;23.30;47.60;;;;;;5037029;28;20214;-61
2023/07/29 06:08:56;;;;;;;0.80;0.70;;;23.30;47.60;;;;;;5036687;28;20226;-62
2023/07/29 06:11:21;;;;;;;0.70;0.70;;;23.30;47.60;;;;;;5040018;28;20287;-61
2023/07/29 06:13:47;;;;;;;0.80;0.80;;;23.20;47.50;;;;;;5035446;28;20222;-62
2023/07/29 06:16:13;;;;;;;0.80;0.80;;;23.30;47.60;;;;;;5038836;28;20210;-64
2023/07/29 06:18:38;;;;;;;0.80;0.70;;;23.30;47.60;;;;;;5036590;28;20229;-61
2023/07/29 06:21:07;;;;;;;0.70;0.70;;;23.30;47.60;;;;;;5038999;28;20233;-61
2023/07/29 06:23:33;;;;;;;0.73;0.73;;;23.30;47.60;;;;;;5038531;28;20214;-62
2023/07/29 06:26:00;;;;;;;0.80;0.80;;;23.30;47.60;;;;;;5035076;28;20533;-61
2023/07/29 06:28:26;;;;;;;0.70;0.70;;;23.30;47.60;;;;;;5039075;28;20554;-61
2023/07/29 06:30:51;;;;;;;0.70;0.70;;;23.30;47.60;;;;;;5037536;28;20462;-62
2023/07/29 06:33:17;;;;;;;0.77;0.77;;;23.30;47.60;;;;;;5027665;28;20242;-61
2023/07/29 06:35:42;;;;;;;0.80;0.70;;;23.30;47.60;;;;;;5024963;28;20218;-61
2023/07/29 06:38:08;;;;;;;0.70;0.70;;;23.30;47.60;;;;;;5029001;28;20218;-62
2023/07/29 06:40:33;;;;;;;1.80;0.70;;;23.30;47.60;;;;;;5040536;28;20309;-63
2023/07/29 06:42:59;;;;;;;0.70;0.70;;;23.30;47.60;;;;;;5035173;28;20905;-62
2023/07/29 06:45:24;;;;;;;0.80;0.80;;;23.30;47.60;;;;;;5038057;28;20214;-63
2023/07/29 06:47:50;;;;;;;0.80;0.80;;;23.30;47.60;;;;;;5035132;28;20309;-62
2023/07/29 06:50:15;;;;;;;1.47;0.80;;;23.30;47.60;;;;;;5037155;28;20218;-62
2023/07/29 06:52:41;;;;;;;0.80;0.80;;;23.20;47.50;;;;;;5034957;28;20222;-63
2023/07/29 06:55:07;;;;;;;0.80;0.80;;;23.30;47.60;;;;;;5038135;28;20253;-62
2023/07/29 06:57:32;;;;;;;0.70;0.70;;;23.30;47.60;;;;;;5034074;28;20415;-61
2023/07/29 06:59:58;;;;;;;0.70;0.60;;;23.30;47.60;;;;;;5036130;28;20219;-63
2023/07/29 07:02:23;;;;;;;1.00;0.80;;;23.30;47.60;;;;;;5037240;28;20681;-61
2023/07/29 07:04:49;;;;;;;0.80;0.73;;;23.30;47.60;;;;;;5038498;28;20768;-63
2023/07/29 07:07:15;;;;;;;0.83;0.83;;;23.30;47.60;;;;;;5036708;28;20221;-62
2023/07/29 07:09:41;;;;;;;0.80;0.80;;;23.30;47.60;;;;;;5021579;28;20219;-62
2023/07/29 07:12:07;;;;;;;0.70;0.70;;;23.30;47.60;;;;;;5032777;28;20466;-64
2023/07/29 07:14:32;;;;;;;0.60;0.60;;;23.30;47.60;;;;;;5032201;28;20214;-61
2023/07/29 07:16:58;;;;;;;0.80;0.80;;;23.30;47.60;;;;;;5036724;28;20451;-61
2023/07/29 07:19:23;;;;;;;0.80;0.80;;;23.30;47.60;;;;;;5035621;28;20297;-61
2023/07/29 07:21:49;;;;;;;0.80;0.80;;;23.30;47.60;;;;;;5037109;28;20784;-61
2023/07/29 07:24:14;;;;;;;0.90;0.90;;;23.30;47.60;;;;;;5036963;28;20367;-64
2023/07/29 07:26:40;;;;;;;0.70;0.70;;;23.30;47.60;;;;;;5040582;28;20222;-63
2023/07/29 07:29:05;;;;;;;0.80;0.80;;;23.30;47.60;;;;;;5032101;28;20222;-62
2023/07/29 07:31:33;;;;;;;0.60;0.60;;;23.30;47.60;;;;;;5039371;28;20238;-61
2023/07/29 07:33:59;;;;;;;0.80;0.80;;;23.30;47.60;;;;;;5035685;28;20238;-64
2023/07/29 07:36:24;;;;;;;0.70;0.60;;;23.30;47.60;;;;;;5036081;28;20454;-62
2023/07/29 07:38:50;;;;;;;0.70;0.70;;;23.30;47.60;;;;;;5021201;28;20225;-62
2023/07/29 07:41:15;;;;;;;0.90;0.70;;;23.30;47.60;;;;;;5035447;28;20269;-62
2023/07/29 07:43:41;;;;;;;0.80;0.80;;;23.30;47.60;;;;;;5035093;28;20229;-62
2023/07/29 07:46:06;;;;;;;0.90;0.73;;;23.30;47.60;;;;;;5036866;28;20228;-62
2023/07/29 07:48:33;;;;;;;1.00;0.70;;;23.30;47.60;;;;;;5032287;28;20214;-62
2023/07/29 07:50:58;;;;;;;0.70;0.70;;;23.30;47.60;;;;;;5036808;28;20321;-62
2023/07/29 07:53:25;;;;;;;0.60;0.60;;;23.30;47.60;;;;;;5048915;28;20589;-61
2023/07/29 07:55:51;;;;;;;0.80;0.80;;;23.30;47.60;;;;;;5036910;28;20230;-61
2023/07/29 07:58:16;;;;;;;1.00;0.90;;;23.30;47.60;;;;;;5026231;28;20503;-62
2023/07/29 08:00:42;;;;;;;0.80;0.80;;;23.30;47.60;;;;;;5037335;28;20221;-62
2023/07/29 08:03:08;;;;;;;0.80;0.70;;;23.30;47.60;;;;;;5025039;28;20214;-62
2023/07/29 08:05:34;;;;;;;0.70;0.70;;;23.30;47.60;;;;;;5035096;28;20463;-61
2023/07/29 08:07:59;;;;;;;0.70;0.70;;;23.30;47.50;;;;;;5036923;28;20228;-62
2023/07/29 08:10:25;;;;;;;0.80;0.80;;;23.30;47.60;;;;;;5033533;28;20250;-62
2023/07/29 08:12:50;;;;;;;0.80;0.80;;;23.30;47.60;;;;;;5034509;28;20238;-63
2023/07/29 08:15:16;;;;;;;0.70;0.70;;;23.30;47.60;;;;;;5036264;28;20233;-62
2023/07/29 08:17:41;;;;;;;0.70;0.70;;;23.30;47.60;;;;;;5037622;28;20222;-62
2023/07/29 08:20:07;;;;;;;0.83;0.73;;;23.30;47.60;;;;;;5034769;28;20229;-63
2023/07/29 08:22:32;;;;;;;0.80;0.80;;;23.30;47.60;;;;;;5039984;28;20221;-62
2023/07/29 08:24:58;;;;;;;0.77;0.77;;;23.30;47.60;;;;;;5033891;28;20751;-64
2023/07/29 08:27:23;;;;;;;0.70;0.70;;;23.30;47.60;;;;;;5036035;28;20225;-61
2023/07/29 08:29:49;;;;;;;1.00;0.70;;;23.30;47.60;;;;;;5032445;28;20226;-63
2023/07/29 08:32:14;;;;;;;0.70;0.70;;;23.30;47.60;;;;;;5037036;28;20690;-62
2023/07/29 08:34:40;;;;;;;0.70;0.70;;;23.30;47.60;;;;;;5030238;28;20683;-64
2023/07/29 08:37:06;;;;;;;0.90;0.70;;;23.30;47.60;;;;;;5022508;28;20225;-62
2023/07/29 08:39:31;;;;;;;0.80;0.70;;;23.30;47.60;;;;;;5033904;28;20325;-63
2023/07/29 08:42:11;;;;;;;1.30;0.80;;;23.30;47.60;;;;;;5033454;28;20269;-62
2023/07/29 08:44:42;;;;;;;0.67;0.60;;;23.30;47.60;;;;;;5034332;28;20648;-62
2023/07/29 08:47:08;;;;;;;0.70;0.70;;;23.30;47.60;;;;;;5024523;28;20447;-62
2023/07/29 08:49:33;;;;;;;0.80;0.80;;;23.30;47.60;;;;;;5035793;28;20467;-62
2023/07/29 08:52:00;;;;;;;0.90;0.90;;;23.30;47.60;;;;;;5034039;28;20246;-61
2023/07/29 08:54:26;;;;;;;0.70;0.70;;;23.30;47.60;;;;;;5031901;28;20224;-62
2023/07/29 08:56:52;;;;;;;0.77;0.77;;;23.30;47.60;;;;;;5034654;28;20805;-61
2023/07/29 08:59:19;;;;;;;0.77;0.77;;;23.30;47.60;;;;;;5027511;28;20219;-64
2023/07/29 09:01:44;;;;;;;0.80;0.80;;;23.30;47.60;;;;;;5025175;28;20234;-62
2023/07/29 09:04:10;;;;;;;0.60;0.60;;;23.30;47.60;;;;;;5023892;28;20789;-64
2023/07/29 09:06:38;;;;;;;0.70;0.70;;;23.30;47.60;;;;;;5032057;28;20227;-62
2023/07/29 09:09:04;;;;;;;0.73;0.70;;;23.30;47.60;;;;;;5031193;28;20226;-61
2023/07/29 09:11:30;;;;;;;0.70;0.70;;;23.30;47.60;;;;;;5031289;28;20814;-61
2023/07/29 09:13:56;;;;;;;0.80;0.80;;;23.30;47.60;;;;;;5035810;28;20301;-62
2023/07/29 09:16:22;;;;;;;1.00;0.90;;;23.30;47.60;;;;;;5031708;28;20463;-62
2023/07/29 09:18:50;;;;;;;0.70;0.70;;;23.30;47.60;;;;;;5033047;28;20452;-62
2023/07/29 09:21:17;;;;;;;0.70;0.70;;;23.30;48.30;;;;;;5024723;28;20233;-63
2023/07/29 09:23:43;;;;;;;0.63;0.60;;;23.30;47.60;;;;;;5034665;28;20460;-62
2023/07/29 09:26:09;;;;;;;0.90;0.60;;;23.30;47.60;;;;;;5033625;28;21030;-61
2023/07/29 09:28:39;;;;;;;0.80;0.80;;;23.30;47.60;;;;;;5033977;28;20529;-62
2023/07/29 09:31:05;;;;;;;0.70;0.70;;;23.30;47.60;;;;;;5035537;28;20688;-63
2023/07/29 09:33:37;;;;;;;0.80;0.70;;;23.30;47.60;;;;;;5034179;28;20478;-64
2023/07/29 09:36:09;;;;;;;0.70;0.70;;;23.30;48.40;;;;;;5024251;28;20302;-62
2023/07/29 09:38:35;;;;;;;0.70;0.70;;;23.30;47.60;;;;;;5035660;28;20470;-63
2023/07/29 09:41:01;;;;;;;0.70;0.70;;;23.30;47.60;;;;;;5033127;28;20628;-62
2023/07/29 09:43:34;;;;;;;0.97;0.90;;;23.30;47.60;;;;;;5034515;28;20977;-63
2023/07/29 09:46:04;;;;;;;0.70;0.70;;;23.30;47.60;;;;;;5034390;28;20226;-62
2023/07/29 09:48:34;;;;;;;0.70;0.70;;;23.30;47.60;;;;;;5033123;28;20563;-62
2023/07/29 09:51:09;;;;;;;0.80;0.70;;;23.30;47.60;;;;;;5035589;28;20455;-61
2023/07/29 09:53:43;;;;;;;0.97;0.80;;;23.30;47.60;;;;;;5033958;28;20533;-61
2023/07/29 09:56:08;;;;;;;0.70;0.70;;;23.30;47.60;;;;;;5037499;28;20463;-62
2023/07/29 09:58:35;;;;;;;0.70;0.60;;;23.30;47.60;;;;;;5036097;28;20458;-63
2023/07/29 10:01:01;;;;;;;0.70;0.70;;;23.30;47.60;;;;;;5021449;28;20231;-62
2023/07/29 10:03:27;;;;;;;0.80;0.80;;;23.30;47.60;;;;;;5028551;28;20463;-62
2023/07/29 10:05:53;;;;;;;0.70;0.70;;;23.30;47.60;;;;;;5030941;28;20627;-62
2023/07/29 10:08:19;;;;;;;0.70;0.70;;;23.30;47.60;;;;;;5035277;28;20452;-62
2023/07/29 10:10:45;;;;;;;0.70;0.70;;;23.30;47.60;;;;;;5036993;28;20249;-63
2023/07/29 10:13:12;;;;;;;0.80;0.70;;;23.30;47.60;;;;;;5035738;28;20959;-62
2023/07/29 10:15:39;;;;;;;0.80;0.67;;;23.30;47.60;;;;;;5038069;28;20234;-62
2023/07/29 10:18:05;;;;;;;0.80;0.77;;;23.30;47.60;;;;;;5033792;28;20448;-62
2023/07/29 10:20:32;;;;;;;0.80;0.60;;;23.30;47.60;;;;;;5033998;28;21220;-62
2023/07/29 10:23:00;;;;;;;0.80;0.80;;;23.30;47.60;;;;;;5036981;28;20456;-61
2023/07/29 10:25:37;;;;;;;1.00;0.90;;;23.30;47.60;;;;;;5028851;28;20488;-62
2023/07/29 10:28:08;;;;;;;0.70;0.70;;;23.30;47.60;;;;;;5035431;28;20452;-62
2023/07/29 10:30:34;;;;;;;0.73;0.73;;;23.30;47.60;;;;;;5035751;28;20498;-62
2023/07/29 10:33:03;;;;;;;0.80;0.80;;;23.30;47.60;;;;;;5035367;28;20507;-62
2023/07/29 10:35:29;;;;;;;0.70;0.70;;;23.30;47.60;;;;;;5038360;28;21081;-62
2023/07/29 10:37:55;;;;;;;0.70;0.67;;;23.30;47.60;;;;;;5038022;28;20451;-62
2023/07/29 10:40:21;;;;;;;0.73;0.70;;;23.30;47.60;;;;;;5036673;28;20218;-62
2023/07/29 10:43:11;;;;;;;0.70;0.70;;;23.30;47.60;;;;;;5031350;28;20484;-63
2023/07/29 10:45:40;;;;;;;0.63;0.60;;;23.30;47.60;;;;;;5026394;28;20803;-62
2023/07/29 10:48:33;;;;;;;0.70;0.70;;;23.30;47.60;;;;;;5028408;28;20455;-62
2023/07/29 10:51:25;;;;;;;0.70;0.70;;;23.30;47.60;;;;;;5036535;28;20448;-62
2023/07/29 10:53:59;;;;;;;0.70;0.70;;;23.30;48.30;;;;;;5031933;28;20447;-62
2023/07/29 10:56:27;;;;;;;0.70;0.60;;;23.30;47.60;;;;;;5028191;28;20465;-62
2023/07/29 10:58:56;;;;;;;0.83;0.83;;;23.30;47.60;;;;;;5033984;28;20451;-61
2023/07/29 11:01:30;;;;;;;0.77;0.77;;;23.30;47.60;;;;;;5020758;28;20924;-62
2023/07/29 11:04:23;;;;;;;0.70;0.70;;;23.30;47.60;;;;;;5015643;28;20457;-63
2023/07/29 11:07:07;;;;;;;0.73;0.73;;;23.30;47.60;;;;;;5029784;28;20551;-62
2023/07/29 11:10:02;;;;;;;0.80;0.80;;;23.30;47.60;;;;;;5031240;28;20555;-62
2023/07/29 11:12:45;;;;;;;0.70;0.70;;;23.30;47.60;;;;;;5026704;28;20490;-62
2023/07/29 11:15:11;;;;;;;0.80;0.77;;;23.30;47.60;;;;;;5023794;28;20463;-62
2023/07/29 11:17:40;;;;;;;0.80;0.80;;;23.30;47.60;;;;;;5036603;28;20455;-62
2023/07/29 11:20:07;;;;;;;0.93;0.90;;;23.30;47.60;;;;;;5033766;28;20230;-63
2023/07/29 11:22:33;;;;;;;0.80;0.73;;;23.30;47.60;;;;;;5037245;28;20882;-62
2023/07/29 11:24:59;;;;;;;0.67;0.60;;;23.30;47.60;;;;;;5025503;28;20463;-63
2023/07/29 11:27:24;;;;;;;0.90;0.80;;;23.30;47.60;;;;;;5032634;28;20965;-64
2023/07/29 11:29:50;;;;;;;0.70;0.70;;;23.30;47.60;;;;;;5014399;28;20688;-61
2023/07/29 11:32:16;;;;;;;0.80;0.70;;;23.30;47.60;;;;;;5023484;28;20313;-63
2023/07/29 11:34:42;;;;;;;0.77;0.77;;;23.30;47.60;;;;;;5010269;28;20260;-65
2023/07/29 11:37:10;;;;;;;0.80;0.73;;;23.30;47.60;;;;;;5014536;28;20840;-65
2023/07/29 11:39:44;;;;;;;0.87;0.87;;;23.30;47.50;;;;;;5026697;28;20226;-64
2023/07/29 11:42:13;;;;;;;0.80;0.80;;;23.30;47.60;;;;;;5019608;28;20459;-64
2023/07/29 11:44:38;;;;;;;76.47;4.43;;;23.30;47.60;;;;;;5018357;28;20459;-63
2023/07/29 11:47:11;;;;;;;5.10;1.13;;;23.30;47.60;;;;;;5015650;28;20468;-64
2023/07/29 11:49:38;;;;;;;2.80;1.10;;;23.40;47.20;;;;;;5023642;28;20693;-65
2023/07/29 11:52:07;;;;;;;3.37;1.30;;;23.40;46.90;;;;;;5015953;28;21148;-64
2023/07/29 11:54:34;;;;;;;4.47;1.80;;;23.40;46.60;;;;;;5009866;28;20465;-64
2023/07/29 11:57:00;;;;;;;5.73;1.43;;;23.40;46.60;;;;;;5010728;28;20902;-66
2023/07/29 11:59:27;;;;;;;3.53;1.47;;;23.40;46.60;;;;;;5004365;28;20538;-64
2023/07/29 12:01:53;;;;;;;8.77;1.73;;;23.40;46.70;;;;;;5023720;28;20225;-64
2023/07/29 12:04:19;;;;;;;4.30;1.40;;;23.40;46.90;;;;;;5013367;28;20544;-64
2023/07/29 12:06:45;;;;;;;5.23;1.60;;;23.40;46.90;;;;;;5003733;28;20587;-65
2023/07/29 12:09:13;;;;;;;8.57;1.50;;;23.40;47.10;;;;;;5012529;28;20237;-66
2023/07/29 12:11:38;;;;;;;4.30;1.17;;;23.40;47.10;;;;;;5008686;28;20249;-65
2023/07/29 12:14:07;;;;;;;4.83;1.40;;;23.40;47.20;;;;;;5018714;28;20788;-65
2023/07/29 12:16:43;;;;;;;2.77;1.40;;;23.40;47.50;;;;;;5008218;28;20231;-65
2023/07/29 12:19:11;;;;;;;8.47;1.50;;;23.30;47.50;;;;;;5006853;28;21707;-66
2023/07/29 12:21:37;;;;;;;3.00;1.40;;;23.30;48.30;;;;;;5018986;28;20888;-65
2023/07/29 12:24:03;;;;;;;2.97;1.10;;;23.30;47.60;;;;;;5018318;28;20561;-64
2023/07/29 12:26:29;;;;;;;1.50;1.23;;;23.30;47.60;;;;;;5014275;28;20743;-66
2023/07/29 12:28:56;;;;;;;4.80;1.30;;;23.30;47.50;;;;;;5012401;28;20898;-66
2023/07/29 12:31:27;;;;;;;4.43;1.30;;;23.30;47.60;;;;;;5015522;28;20975;-66
2023/07/29 12:33:56;;;;;;;6.40;1.43;;;23.30;47.60;;;;;;5021960;28;20441;-66
2023/07/29 12:36:21;;;;;;;1.90;1.10;;;23.30;47.60;;;;;;5012931;28;20468;-66
2023/07/29 12:38:47;;;;;;;11.83;1.30;;;23.40;47.70;;;;;;5019631;28;20468;-66
2023/07/29 12:41:12;;;;;;;5.50;1.40;;;23.30;47.60;;;;;;5024537;28;20305;-66
2023/07/29 12:43:38;;;;;;;2.90;1.20;;;23.30;47.60;;;;;;5024826;28;20225;-66
2023/07/29 12:46:04;;;;;;;3.07;1.47;;;23.30;47.60;;;;;;5013857;28;20614;-65
2023/07/29 12:48:29;;;;;;;2.63;1.30;;;23.30;47.60;;;;;;5017363;28;20214;-66